createdAt,value
2022-09-06T00:00:18.596Z,4.30
2022-09-06T00:02:45.651Z,4.00
2022-09-06T00:05:13.557Z,4.00
2022-09-06T00:07:41.301Z,4.30
2022-09-06T00:10:08.975Z,4.60
2022-09-06T00:12:36.058Z,4.40
2022-09-06T00:15:04.855Z,4.10
2022-09-06T00:17:32.599Z,4.50
2022-09-06T00:19:59.656Z,3.80
2022-09-06T00:22:26.746Z,4.00
2022-09-06T00:24:53.668Z,4.20
2022-09-06T00:27:21.245Z,3.50
2022-09-06T00:29:48.181Z,4.40
2022-09-06T00:32:15.232Z,3.90
2022-09-06T00:34:42.491Z,4.50
2022-09-06T00:37:09.454Z,4.10
2022-09-06T00:39:36.638Z,4.10
2022-09-06T00:42:10.483Z,4.20
2022-09-06T00:44:37.989Z,4.40
2022-09-06T00:47:05.754Z,4.50
2022-09-06T00:49:39.599Z,4.80
2022-09-06T00:52:08.369Z,4.30
2022-09-06T00:54:35.222Z,4.20
2022-09-06T00:57:02.271Z,4.90
2022-09-06T00:59:30.955Z,4.40
2022-09-06T01:01:58.333Z,4.20
2022-09-06T01:04:25.614Z,4.10
2022-09-06T01:06:57.962Z,4.40
2022-09-06T01:09:32.800Z,4.10
2022-09-06T01:12:18.901Z,4.50
2022-09-06T01:15:12.894Z,4.10
2022-09-06T01:18:20.211Z,4.00
2022-09-06T01:20:56.456Z,4.80
2022-09-06T01:23:45.015Z,5.10
2022-09-06T01:26:25.111Z,4.30
2022-09-06T01:28:52.133Z,5.60
2022-09-06T01:31:32.298Z,4.70
2022-09-06T01:34:08.572Z,5.00
2022-09-06T01:37:08.390Z,5.40
2022-09-06T01:39:36.691Z,5.30
2022-09-06T01:42:18.619Z,5.00
2022-09-06T01:44:58.346Z,5.10
2022-09-06T01:47:45.464Z,5.10
2022-09-06T01:50:52.662Z,5.70
2022-09-06T01:54:14.090Z,5.00
2022-09-06T01:57:28.352Z,5.60
2022-09-06T02:00:09.440Z,5.80
2022-09-06T02:02:42.490Z,5.70
2022-09-06T02:05:13.492Z,6.00
2022-09-06T02:07:40.544Z,5.60
2022-09-06T02:10:09.696Z,6.10
2022-09-06T02:12:38.412Z,6.10
2022-09-06T02:15:07.359Z,6.10
2022-09-06T02:17:38.087Z,5.30
2022-09-06T02:20:09.897Z,6.30
2022-09-06T02:22:41.944Z,5.70
2022-09-06T02:25:10.449Z,6.10
2022-09-06T02:27:37.989Z,6.30
2022-09-06T02:30:06.474Z,5.80
2022-09-06T02:32:37.527Z,6.20
2022-09-06T02:35:09.570Z,6.50
2022-09-06T02:37:36.550Z,5.80
2022-09-06T02:40:04.372Z,6.20
2022-09-06T02:42:31.476Z,5.50
2022-09-06T02:44:58.425Z,5.40
2022-09-06T02:47:25.383Z,6.00
2022-09-06T02:49:52.336Z,6.50
2022-09-06T02:52:19.395Z,6.10
2022-09-06T02:54:46.649Z,6.70
2022-09-06T02:57:13.711Z,6.20
2022-09-06T02:59:41.172Z,6.10
2022-09-06T03:02:08.303Z,6.10
2022-09-06T03:04:35.391Z,6.40
2022-09-06T03:07:02.346Z,6.70
2022-09-06T03:09:29.496Z,6.10
2022-09-06T03:11:57.161Z,6.90
2022-09-06T03:14:24.616Z,6.30
2022-09-06T03:16:52.015Z,6.40
2022-09-06T03:19:20.358Z,6.40
2022-09-06T03:21:47.403Z,6.30
2022-09-06T03:24:14.350Z,6.10
2022-09-06T03:26:41.812Z,6.60
2022-09-06T03:29:09.172Z,6.60
2022-09-06T03:31:36.122Z,8.20
2022-09-06T03:34:05.322Z,6.90
2022-09-06T03:36:34.312Z,6.60
2022-09-06T03:39:01.260Z,6.30
2022-09-06T03:41:28.209Z,6.10
2022-09-06T03:43:55.192Z,7.10
2022-09-06T03:46:22.297Z,6.70
2022-09-06T03:48:50.274Z,7.00
2022-09-06T03:51:17.322Z,6.60
2022-09-06T03:53:44.579Z,6.60
2022-09-06T03:56:11.620Z,6.00
2022-09-06T03:58:38.670Z,6.10
2022-09-06T04:01:09.875Z,6.90
2022-09-06T04:03:37.482Z,6.50
2022-09-06T04:06:05.150Z,6.90
2022-09-06T04:08:32.147Z,6.70
2022-09-06T04:10:59.443Z,6.50
2022-09-06T04:13:27.541Z,5.70
2022-09-06T04:15:55.138Z,6.30
2022-09-06T04:18:22.486Z,6.10
2022-09-06T04:20:50.578Z,6.00
2022-09-06T04:23:17.855Z,7.30
2022-09-06T04:25:52.241Z,6.40
2022-09-06T04:28:19.399Z,6.30
2022-09-06T04:30:51.979Z,7.10
2022-09-06T04:33:18.935Z,6.60
2022-09-06T04:35:50.184Z,6.80
2022-09-06T04:38:17.355Z,6.90
2022-09-06T04:40:44.309Z,7.10
2022-09-06T04:43:14.649Z,6.70
2022-09-06T04:45:42.859Z,7.10
2022-09-06T04:48:09.868Z,7.10
2022-09-06T04:50:37.438Z,6.10
2022-09-06T04:53:05.397Z,6.80
2022-09-06T04:55:34.132Z,5.70
2022-09-06T04:58:01.549Z,6.10
2022-09-06T05:00:28.900Z,5.60
2022-09-06T05:02:55.844Z,5.30
2022-09-06T05:05:23.404Z,5.70
2022-09-06T05:07:54.652Z,6.00
2022-09-06T05:10:22.829Z,5.80
2022-09-06T05:12:50.593Z,5.50
2022-09-06T05:15:18.155Z,5.60
2022-09-06T05:17:45.611Z,5.80
2022-09-06T05:20:13.486Z,6.50
2022-09-06T05:22:40.738Z,6.70
2022-09-06T05:25:09.080Z,7.40
2022-09-06T05:27:36.371Z,6.70
2022-09-06T05:30:04.704Z,6.40
2022-09-06T05:32:32.293Z,6.20
2022-09-06T05:35:00.091Z,6.20
2022-09-06T05:37:27.225Z,6.30
2022-09-06T05:39:54.555Z,5.40
2022-09-06T05:42:21.734Z,5.80
2022-09-06T05:44:48.686Z,5.70
2022-09-06T05:47:15.970Z,5.90
2022-09-06T05:49:44.155Z,5.50
2022-09-06T05:52:11.184Z,6.20
2022-09-06T05:54:38.858Z,5.50
2022-09-06T05:57:06.117Z,5.50
2022-09-06T05:59:33.170Z,5.80
2022-09-06T06:02:04.362Z,5.20
2022-09-06T06:04:34.768Z,6.40
2022-09-06T06:07:02.948Z,5.90
2022-09-06T06:09:31.031Z,5.30
2022-09-06T06:11:58.489Z,5.50
2022-09-06T06:14:26.578Z,5.60
2022-09-06T06:16:53.738Z,5.00
2022-09-06T06:19:20.709Z,5.40
2022-09-06T06:21:47.532Z,6.20
2022-09-06T06:24:14.644Z,5.20
2022-09-06T06:26:41.634Z,4.90
2022-09-06T06:29:09.913Z,5.50
2022-09-06T06:31:39.414Z,5.90
2022-09-06T06:34:07.484Z,4.60
2022-09-06T06:36:35.841Z,5.80
2022-09-06T06:39:04.513Z,4.80
2022-09-06T06:41:32.217Z,4.90
2022-09-06T06:44:03.729Z,5.10
2022-09-06T06:46:35.985Z,4.90
2022-09-06T06:49:03.000Z,5.50
2022-09-06T06:51:31.792Z,4.70
2022-09-06T06:53:58.790Z,4.80
2022-09-06T06:56:30.485Z,4.70
2022-09-06T06:58:59.282Z,5.00
2022-09-06T07:01:27.040Z,4.50
2022-09-06T07:03:54.735Z,6.10
2022-09-06T07:06:22.395Z,4.60
2022-09-06T07:09:09.757Z,4.40
2022-09-06T07:11:38.637Z,4.70
2022-09-06T07:14:05.674Z,4.70
2022-09-06T07:16:32.706Z,5.40
2022-09-06T07:19:00.639Z,4.30
2022-09-06T07:21:43.142Z,4.10
2022-09-06T07:24:10.659Z,4.10
2022-09-06T07:26:39.006Z,4.50
2022-09-06T07:29:07.483Z,8.90
2022-09-06T07:34:22.461Z,4.70
2022-09-06T07:36:56.008Z,4.10
2022-09-06T07:39:23.225Z,4.10
2022-09-06T07:41:50.405Z,4.70
2022-09-06T07:44:21.550Z,4.20
2022-09-06T07:46:48.720Z,4.60
2022-09-06T07:49:15.846Z,4.30
2022-09-06T07:51:42.790Z,4.50
2022-09-06T07:56:56.857Z,4.80
2022-09-06T07:59:23.940Z,5.30
2022-09-06T08:01:53.422Z,4.80
2022-09-06T08:04:20.457Z,4.90
2022-09-06T08:09:36.259Z,6.20
2022-09-06T08:12:07.055Z,6.10
2022-09-06T08:14:35.778Z,5.30
2022-09-06T08:17:03.851Z,4.00
2022-09-06T08:19:31.202Z,3.70
2022-09-06T08:21:58.149Z,4.20
2022-09-06T08:24:25.093Z,3.70
2022-09-06T08:26:53.202Z,4.20
2022-09-06T08:29:20.314Z,4.50
2022-09-06T08:31:47.470Z,3.60
2022-09-06T08:34:15.426Z,3.80
2022-09-06T08:36:42.800Z,4.20
2022-09-06T08:39:10.410Z,4.20
2022-09-06T08:41:46.012Z,4.80
2022-09-06T08:47:15.547Z,3.80
2022-09-06T08:49:47.461Z,3.90
2022-09-06T08:52:44.960Z,3.50
2022-09-06T08:55:31.582Z,3.80
2022-09-06T08:58:35.816Z,4.20
2022-09-06T09:01:13.660Z,3.60
2022-09-06T09:03:40.669Z,4.20
2022-09-06T09:06:09.471Z,4.20
2022-09-06T09:08:36.928Z,3.80
2022-09-06T09:11:06.571Z,4.60
2022-09-06T09:13:39.630Z,4.00
2022-09-06T09:16:06.939Z,4.00
2022-09-06T09:18:35.954Z,4.80
2022-09-06T09:21:02.930Z,4.80
2022-09-06T09:23:31.242Z,4.70
2022-09-06T09:26:14.542Z,4.00
2022-09-06T09:29:12.920Z,3.90
2022-09-06T09:31:40.009Z,3.30
2022-09-06T09:34:11.525Z,3.30
2022-09-06T09:36:38.916Z,3.70
2022-09-06T09:39:10.842Z,3.30
2022-09-06T09:41:39.841Z,4.30
2022-09-06T09:44:10.199Z,5.10
2022-09-06T09:49:10.503Z,3.80
2022-09-06T09:51:48.194Z,3.60
2022-09-06T09:54:29.994Z,3.10
2022-09-06T09:56:56.862Z,3.50
2022-09-06T09:59:54.216Z,3.50
2022-09-06T10:02:34.526Z,3.00
2022-09-06T10:05:18.185Z,3.20
2022-09-06T10:07:51.615Z,2.70
2022-09-06T10:10:30.202Z,2.80
2022-09-06T10:13:29.837Z,2.60
2022-09-06T10:16:00.733Z,2.60
2022-09-06T10:18:37.690Z,3.40
2022-09-06T10:21:06.773Z,3.00
2022-09-06T10:26:49.995Z,2.80
2022-09-06T10:29:34.983Z,3.20
2022-09-06T10:32:08.764Z,3.40
2022-09-06T10:34:44.822Z,3.50
2022-09-06T10:37:21.198Z,2.90
2022-09-06T10:40:08.306Z,3.30
2022-09-06T10:42:43.649Z,3.40
2022-09-06T10:45:17.098Z,3.20
2022-09-06T10:47:47.881Z,3.30
2022-09-06T10:50:15.338Z,3.10
2022-09-06T10:52:44.297Z,3.20
2022-09-06T10:55:14.118Z,3.30
2022-09-06T11:00:46.851Z,3.70
2022-09-06T11:06:08.700Z,3.20
2022-09-06T11:08:58.149Z,3.70
2022-09-06T11:11:48.764Z,3.90
2022-09-06T11:14:16.224Z,4.00
2022-09-06T11:16:50.019Z,3.90
2022-09-06T11:19:22.919Z,3.30
2022-09-06T11:22:28.474Z,6.10
2022-09-06T11:25:29.627Z,3.60
2022-09-06T11:27:58.359Z,3.30
2022-09-06T11:30:25.882Z,3.50
2022-09-06T11:33:20.587Z,3.50
2022-09-06T11:35:47.534Z,3.80
2022-09-06T11:38:14.579Z,3.90
2022-09-06T11:40:44.571Z,4.10
2022-09-06T11:43:17.673Z,3.70
2022-09-06T11:45:51.331Z,3.50
2022-09-06T11:48:25.528Z,4.00
2022-09-06T11:50:58.935Z,3.30
2022-09-06T11:53:27.928Z,3.10
2022-09-06T11:56:01.127Z,2.90
2022-09-06T11:58:31.143Z,3.30
2022-09-06T12:01:14.172Z,3.00
2022-09-06T12:06:43.074Z,3.30
2022-09-06T12:09:47.193Z,3.40
2022-09-06T12:12:41.591Z,2.90
2022-09-06T12:15:25.900Z,3.30
2022-09-06T12:17:53.412Z,3.10
2022-09-06T12:20:48.520Z,3.60
2022-09-06T12:23:37.292Z,2.80
2022-09-06T12:26:10.078Z,3.30
2022-09-06T12:28:54.081Z,2.80
2022-09-06T12:31:33.497Z,4.10
2022-09-06T12:34:06.058Z,2.80
2022-09-06T12:36:32.937Z,2.90
2022-09-06T12:39:09.782Z,3.10
2022-09-06T12:41:43.107Z,3.70
2022-09-06T12:44:11.264Z,3.30
2022-09-06T12:46:40.126Z,3.80
2022-09-06T12:49:09.296Z,3.70
2022-09-06T12:51:38.159Z,3.10
2022-09-06T12:54:22.517Z,4.10
2022-09-06T12:56:49.976Z,4.20
2022-09-06T12:59:25.245Z,3.80
2022-09-06T13:02:05.893Z,3.70
2022-09-06T13:04:43.081Z,3.30
2022-09-06T13:07:13.318Z,3.30
2022-09-06T13:09:42.127Z,3.00
2022-09-06T13:12:19.287Z,3.80
2022-09-06T13:14:46.338Z,3.30
2022-09-06T13:17:26.292Z,3.30
2022-09-06T13:19:53.379Z,3.60
2022-09-06T13:22:42.213Z,3.30
2022-09-06T13:25:35.963Z,3.40
2022-09-06T13:28:03.757Z,3.40
2022-09-06T13:30:36.440Z,4.10
2022-09-06T13:33:04.414Z,4.00
2022-09-06T13:35:34.751Z,3.80
2022-09-06T13:41:15.886Z,3.70
2022-09-06T13:43:45.309Z,4.10
2022-09-06T13:46:12.426Z,4.70
2022-09-06T13:48:40.005Z,6.40
2022-09-06T13:51:08.086Z,8.00
2022-09-06T13:53:35.399Z,5.90
2022-09-06T13:56:03.363Z,4.50
2022-09-06T13:58:31.637Z,4.90
2022-09-06T14:00:58.844Z,5.00
2022-09-06T14:03:28.778Z,4.30
2022-09-06T14:05:56.582Z,4.60
2022-09-06T14:08:23.679Z,4.50
2022-09-06T14:10:51.430Z,5.40
2022-09-06T14:13:18.861Z,4.80
2022-09-06T14:15:47.470Z,5.30
2022-09-06T14:18:14.803Z,4.70
2022-09-06T14:20:42.119Z,5.00
2022-09-06T14:23:09.610Z,4.90
2022-09-06T14:25:38.173Z,5.10
2022-09-06T14:28:06.018Z,4.70
2022-09-06T14:30:33.514Z,5.00
2022-09-06T14:33:00.974Z,3.90
2022-09-06T14:35:28.633Z,4.80
2022-09-06T14:37:55.516Z,4.80
2022-09-06T14:40:22.422Z,5.00
2022-09-06T14:42:50.630Z,6.30
2022-09-06T14:45:18.773Z,5.20
2022-09-06T14:47:46.223Z,5.70
2022-09-06T14:50:13.477Z,5.50
2022-09-06T14:52:40.424Z,5.00
2022-09-06T14:55:07.799Z,4.80
2022-09-06T14:57:35.549Z,5.10
2022-09-06T15:00:06.258Z,5.10
2022-09-06T15:02:33.277Z,7.50
2022-09-06T15:05:00.367Z,5.50
2022-09-06T15:07:29.053Z,4.90
2022-09-06T15:09:56.407Z,5.00
2022-09-06T15:12:23.486Z,5.00
2022-09-06T15:14:50.499Z,4.70
2022-09-06T15:17:17.550Z,5.10
2022-09-06T15:19:46.067Z,4.60
2022-09-06T15:22:13.498Z,5.20
2022-09-06T15:24:40.857Z,5.00
2022-09-06T15:27:07.807Z,5.00
2022-09-06T15:29:34.753Z,5.40
2022-09-06T15:32:02.114Z,5.60
2022-09-06T15:34:29.776Z,5.30
2022-09-06T15:36:57.242Z,5.30
2022-09-06T15:39:24.344Z,6.00
2022-09-06T15:41:51.900Z,5.00
2022-09-06T15:44:19.725Z,6.10
2022-09-06T15:46:58.274Z,5.70
2022-09-06T15:49:33.918Z,5.90
2022-09-06T15:52:03.149Z,5.90
2022-09-06T15:54:48.726Z,5.70
2022-09-06T15:57:16.724Z,6.20
2022-09-06T15:59:44.433Z,5.50
2022-09-06T16:02:11.959Z,5.70
2022-09-06T16:04:39.123Z,5.70
2022-09-06T16:07:06.961Z,5.80
2022-09-06T16:09:33.872Z,5.20
2022-09-06T16:12:00.839Z,5.70
2022-09-06T16:14:29.165Z,6.00
2022-09-06T16:16:57.549Z,6.70
2022-09-06T16:19:26.239Z,6.30
2022-09-06T16:21:53.242Z,6.10
2022-09-06T16:24:21.576Z,5.90
2022-09-06T16:26:48.686Z,5.90
2022-09-06T16:29:16.697Z,5.90
2022-09-06T16:31:43.912Z,5.60
2022-09-06T16:34:11.830Z,5.70
2022-09-06T16:36:38.953Z,6.70
2022-09-06T16:39:06.486Z,6.30
2022-09-06T16:41:41.255Z,6.30
2022-09-06T16:44:09.235Z,5.70
2022-09-06T16:46:36.398Z,5.90
2022-09-06T16:49:04.666Z,5.90
2022-09-06T16:51:31.840Z,6.40
2022-09-06T16:53:59.612Z,6.10
2022-09-06T16:56:28.650Z,6.20
2022-09-06T16:58:57.106Z,6.50
2022-09-06T17:01:27.826Z,6.80
2022-09-06T17:03:56.134Z,6.30
2022-09-06T17:06:24.275Z,6.90
2022-09-06T17:08:52.198Z,6.30
2022-09-06T17:11:20.673Z,6.20
2022-09-06T17:13:49.588Z,6.10
2022-09-06T17:16:35.730Z,6.80
2022-09-06T17:19:02.751Z,6.70
2022-09-06T17:21:29.909Z,6.00
2022-09-06T17:23:58.808Z,6.30
2022-09-06T17:26:25.770Z,6.30
2022-09-06T17:28:52.721Z,5.90
2022-09-06T17:31:25.520Z,6.20
2022-09-06T17:33:53.633Z,6.20
2022-09-06T17:36:25.581Z,5.60
2022-09-06T17:38:54.117Z,6.30
2022-09-06T17:41:22.378Z,5.40
2022-09-06T17:43:50.744Z,5.70
2022-09-06T17:46:18.293Z,6.00
2022-09-06T17:48:45.716Z,5.40
2022-09-06T17:51:13.196Z,5.50
2022-09-06T17:53:41.483Z,5.90
2022-09-06T17:56:10.579Z,5.60
2022-09-06T17:58:37.599Z,5.60
2022-09-06T18:01:11.430Z,4.40
2022-09-06T18:03:42.338Z,4.40
2022-09-06T18:06:11.110Z,4.20
2022-09-06T18:08:40.570Z,4.40
2022-09-06T18:11:12.503Z,5.10
2022-09-06T18:13:40.080Z,3.80
2022-09-06T18:16:07.058Z,4.30
2022-09-06T18:18:34.543Z,3.60
2022-09-06T18:21:02.789Z,3.80
2022-09-06T18:23:30.978Z,4.00
2022-09-06T18:25:59.369Z,3.40
2022-09-06T18:28:28.041Z,3.50
2022-09-06T18:31:10.578Z,3.30
2022-09-06T18:33:38.429Z,3.40
2022-09-06T18:36:07.718Z,3.30
2022-09-06T18:38:35.042Z,2.90
2022-09-06T18:41:03.462Z,3.00
2022-09-06T18:43:32.634Z,2.80
2022-09-06T18:46:03.604Z,2.80
2022-09-06T18:48:34.629Z,2.50
2022-09-06T18:51:11.624Z,3.00
2022-09-06T18:53:42.708Z,2.70
2022-09-06T18:56:12.468Z,2.30
2022-09-06T18:58:39.682Z,2.50
2022-09-06T19:01:08.870Z,2.60
2022-09-06T19:03:36.719Z,2.20
2022-09-06T19:06:15.266Z,2.50
2022-09-06T19:08:42.500Z,2.40
2022-09-06T19:11:17.379Z,2.70
2022-09-06T19:13:45.243Z,2.30
2022-09-06T19:16:13.322Z,1.90
2022-09-06T19:18:40.655Z,2.30
2022-09-06T19:21:12.514Z,1.80
2022-09-06T19:23:41.107Z,1.90
2022-09-06T19:26:10.359Z,2.10
2022-09-06T19:28:38.202Z,2.10
2022-09-06T19:31:16.103Z,1.80
2022-09-06T19:33:43.855Z,1.80
2022-09-06T19:36:12.350Z,1.70
2022-09-06T19:38:59.596Z,2.20
2022-09-06T19:41:35.379Z,1.80
2022-09-06T19:44:05.872Z,1.60
2022-09-06T19:46:36.723Z,2.10
2022-09-06T19:49:08.373Z,2.20
2022-09-06T19:51:36.521Z,1.60
2022-09-06T19:54:03.792Z,1.50
2022-09-06T19:56:33.627Z,1.60
2022-09-06T19:59:02.758Z,1.40
2022-09-06T20:01:31.284Z,1.30
2022-09-06T20:03:58.923Z,1.70
2022-09-06T20:06:27.074Z,1.30
2022-09-06T20:08:55.565Z,1.30
2022-09-06T20:11:23.965Z,1.30
2022-09-06T20:13:51.007Z,1.70
2022-09-06T20:16:20.628Z,1.00
2022-09-06T20:18:48.718Z,1.40
2022-09-06T20:21:17.899Z,1.20
2022-09-06T20:23:50.869Z,1.00
2022-09-06T20:26:18.356Z,1.30
2022-09-06T20:28:46.291Z,1.30
2022-09-06T20:31:16.346Z,1.10
2022-09-06T20:33:48.766Z,1.20
2022-09-06T20:36:17.213Z,1.60
2022-09-06T20:38:45.805Z,1.00
2022-09-06T20:41:20.072Z,1.10
2022-09-06T20:43:51.439Z,1.10
2022-09-06T20:46:19.900Z,1.80
2022-09-06T20:48:47.013Z,1.10
2022-09-06T20:51:19.009Z,1.10
2022-09-06T20:53:53.100Z,1.20
2022-09-06T20:56:24.978Z,1.20
2022-09-06T20:58:56.703Z,1.10
2022-09-06T21:01:25.209Z,1.20
2022-09-06T21:03:57.799Z,1.10
2022-09-06T21:06:26.089Z,1.10
2022-09-06T21:08:53.237Z,1.20
2022-09-06T21:11:21.655Z,1.00
2022-09-06T21:13:52.670Z,1.40
2022-09-06T21:16:24.226Z,1.20
2022-09-06T21:18:52.362Z,1.00
2022-09-06T21:21:19.359Z,1.50
2022-09-06T21:23:46.309Z,0.80
2022-09-06T21:26:13.361Z,1.70
2022-09-06T21:28:40.826Z,1.10
2022-09-06T21:31:09.064Z,1.10
2022-09-06T21:33:36.769Z,1.00
2022-09-06T21:36:07.143Z,1.10
2022-09-06T21:38:34.868Z,0.90
2022-09-06T21:41:02.433Z,0.90
2022-09-06T21:43:30.716Z,1.00
2022-09-06T21:46:08.015Z,1.20
2022-09-06T21:48:38.959Z,1.20
2022-09-06T21:51:09.903Z,1.00
2022-09-06T21:53:36.951Z,1.10
2022-09-06T21:56:04.774Z,0.80
2022-09-06T21:58:31.880Z,1.00
2022-09-06T22:00:59.525Z,1.00
2022-09-06T22:03:27.456Z,0.80
2022-09-06T22:05:55.506Z,1.10
2022-09-06T22:08:22.965Z,0.90
2022-09-06T22:10:50.017Z,0.90
2022-09-06T22:13:17.275Z,1.10
2022-09-06T22:15:44.767Z,0.90
2022-09-06T22:18:11.999Z,1.00
2022-09-06T22:20:39.135Z,0.90
2022-09-06T22:23:07.064Z,0.90
2022-09-06T22:25:34.085Z,1.90
2022-09-06T22:28:01.555Z,0.60
2022-09-06T22:30:29.028Z,1.00
2022-09-06T22:32:57.091Z,1.10
2022-09-06T22:35:24.043Z,1.10
2022-09-06T22:37:50.999Z,1.60
2022-09-06T22:40:17.846Z,1.00
2022-09-06T22:42:44.695Z,1.00
2022-09-06T22:45:11.644Z,0.90
2022-09-06T22:47:38.597Z,0.80
2022-09-06T22:50:06.750Z,0.70
2022-09-06T22:52:33.729Z,1.10
2022-09-06T22:55:00.614Z,1.40
2022-09-06T22:57:27.537Z,0.80
2022-09-06T22:59:54.582Z,1.00
2022-09-06T23:02:21.639Z,0.60
2022-09-06T23:04:48.861Z,1.20
2022-09-06T23:07:16.005Z,0.90
2022-09-06T23:09:43.110Z,1.50
2022-09-06T23:12:10.082Z,0.90
2022-09-06T23:14:37.121Z,0.80
2022-09-06T23:17:04.100Z,0.80
2022-09-06T23:19:31.020Z,0.90
2022-09-06T23:21:58.180Z,0.80
2022-09-06T23:24:27.108Z,1.30
2022-09-06T23:26:55.152Z,0.80
2022-09-06T23:29:22.198Z,1.80
2022-09-06T23:31:49.200Z,0.90
2022-09-06T23:34:16.611Z,1.20
2022-09-06T23:36:44.074Z,0.90
2022-09-06T23:39:11.838Z,1.10
2022-09-06T23:41:38.723Z,0.60
2022-09-06T23:44:05.637Z,0.80
2022-09-06T23:46:33.857Z,0.80
2022-09-06T23:49:00.974Z,1.10
2022-09-06T23:51:27.929Z,0.90
2022-09-06T23:53:54.876Z,0.90
2022-09-06T23:56:22.642Z,0.90
2022-09-06T23:58:49.590Z,0.80
